Weather at Smith Reynolds Airport

Public forecast

Using degrees Fahrenheit for public forecast. Weather courtesy of forecast.io.

Current aviation weather report (METAR) for Smith Reynolds Airport

Retrieved 2021/08/05 13:54 UTC (1 hour ago):

KINT 051354Z VRB04KT 10SM CLR 24/16 A3020 RMK AO2 SLP215 T02390161

Aviation forecast (TAF) for Smith Reynolds Airport

Retrieved 2021/08/05 12:22 UTC (3 hours ago):

TAF KINT 051120Z 0512/0612 04005KT P6SM FEW060 FEW120 FM052200 VRB04KT P6SM FEW060